Coal Springs, South Dakota
Current Conditions -  °F | °C
As of 7:53 PM on Thursday 20 Nov 2014 (Local Time) from KHEI Reporting Station
Clear Clear  
Wind Chill:   Ceiling: Unl
Heat Index: 20°   Visibility: 10mi
Dew Point: 16°   Wind: 10mph
Humidity: 85%   Direction: 180°S
Pressure: 29.88"   Gusts: NA
Location:  45.2919°N, 102.298°W
Report Text: KHEI 210253Z AUTO 18009KT 10SM CLR M07/M09 A2988 RMK AO2 SLP161 T10671089 58010
Loading
Personal Weather Stations






























Interactive Weather Map New forecast layout! Learn more

10-Day Weather Forecast

Advertisements
Track Severe Weather on mobile